Time;durP1;ratioP1;P1;durP2;ratioP2;P2;SDS_P1;SDS_P2;PMS_P1;PMS_P2;Temp;Humidity;BMP_temperature;BMP_pressure;BME280_temperature;BME280_humidity;BME280_pressure;Samples;Min_cycle;Max_cycle;Signal;HPM_P1;HPM_P2
2021/05/03 00:01:45;;;;;;;9.45;2.92;;;9.80;93.60;;;;;;5090186;28;20046;-76
2021/05/03 00:04:29;;;;;;;4.20;2.60;;;9.70;93.50;;;;;;5076156;28;20546;-76
2021/05/03 00:07:14;;;;;;;6.70;2.33;;;9.70;93.50;;;;;;5088872;28;20073;-78
2021/05/03 00:09:58;;;;;;;9.93;2.90;;;9.80;93.60;;;;;;5075757;28;20047;-76
2021/05/03 00:12:42;;;;;;;5.65;3.47;;;9.80;93.60;;;;;;5090119;28;20043;-76
2021/05/03 00:15:26;;;;;;;6.60;3.22;;;9.70;93.70;;;;;;5078884;28;20074;-77
2021/05/03 00:18:10;;;;;;;4.95;3.03;;;9.70;93.80;;;;;;5091835;28;20054;-76
2021/05/03 00:20:54;;;;;;;6.97;3.00;;;9.70;93.90;;;;;;5092457;28;20035;-77
2021/05/03 00:23:38;;;;;;;6.07;3.15;;;9.70;93.90;;;;;;5089461;28;20115;-75
2021/05/03 00:26:23;;;;;;;7.95;3.83;;;9.70;93.90;;;;;;5091432;28;20194;-75
2021/05/03 00:29:07;;;;;;;7.00;3.45;;;9.70;93.80;;;;;;5100041;28;20047;-74
2021/05/03 00:31:33;;;;;;;7.00;2.97;;;9.60;93.90;;;;;;5071578;28;20032;-73
2021/05/03 00:34:18;;;;;;;6.68;2.95;;;9.60;93.70;;;;;;5090867;28;20058;-74
2021/05/03 00:37:01;;;;;;;5.18;3.13;;;9.60;93.80;;;;;;5090525;28;20034;-73
2021/05/03 00:39:46;;;;;;;6.38;2.70;;;9.60;93.80;;;;;;5100556;28;20051;-74
2021/05/03 00:42:29;;;;;;;7.50;3.20;;;9.70;93.70;;;;;;5090123;28;20082;-74
2021/05/03 00:45:17;;;;;;;8.05;2.85;;;9.60;93.60;;;;;;5076324;28;20067;-75
2021/05/03 00:48:01;;;;;;;7.70;3.10;;;9.60;93.90;;;;;;5083972;28;20034;-75
2021/05/03 00:50:47;;;;;;;6.30;2.67;;;9.60;93.60;;;;;;5071087;28;20487;-75
2021/05/03 00:53:31;;;;;;;4.95;3.55;;;9.60;93.60;;;;;;5082854;28;20054;-75
2021/05/03 00:56:15;;;;;;;3.70;2.80;;;9.60;93.50;;;;;;5109630;28;20031;-75
2021/05/03 00:58:43;;;;;;;3.80;2.55;;;9.60;93.50;;;;;;5088856;28;20396;-75
2021/05/03 01:01:27;;;;;;;3.95;2.42;;;9.60;93.40;;;;;;5110715;28;20047;-75
2021/05/03 01:04:11;;;;;;;4.13;2.83;;;9.60;93.40;;;;;;5088842;28;20554;-76
2021/05/03 01:06:55;;;;;;;6.38;2.33;;;9.60;93.40;;;;;;5089682;28;20111;-75
2021/05/03 01:09:39;;;;;;;4.13;2.30;;;9.60;93.30;;;;;;5071053;28;20035;-75
2021/05/03 01:12:23;;;;;;;6.38;2.40;;;9.60;93.30;;;;;;5075792;28;20081;-79
2021/05/03 01:15:10;;;;;;;3.92;2.35;;;9.60;93.30;;;;;;5094915;28;20031;-77
2021/05/03 01:17:57;;;;;;;4.25;2.35;;;9.60;93.20;;;;;;5093329;28;20549;-77
2021/05/03 01:20:42;;;;;;;6.07;2.75;;;9.60;93.20;;;;;;5095019;28;20077;-78
2021/05/03 01:23:26;;;;;;;3.78;2.55;;;9.60;93.10;;;;;;5095333;28;20031;-75
2021/05/03 01:26:10;;;;;;;4.57;2.55;;;9.50;93.10;;;;;;5094406;28;20081;-75
2021/05/03 01:28:54;;;;;;;5.25;2.88;;;9.60;93.10;;;;;;5109649;28;20506;-74
2021/05/03 01:31:38;;;;;;;4.68;2.75;;;9.50;93.10;;;;;;5114047;28;20092;-75
2021/05/03 01:34:22;;;;;;;4.25;2.53;;;9.50;93.10;;;;;;5074461;28;20038;-74
2021/05/03 01:37:06;;;;;;;4.72;2.47;;;9.60;93.10;;;;;;5059554;28;20047;-74
2021/05/03 01:39:51;;;;;;;6.57;2.40;;;9.50;93.10;;;;;;5113176;28;20039;-74
2021/05/03 01:42:37;;;;;;;5.00;2.55;;;9.50;93.00;;;;;;5084002;28;20034;-75
2021/05/03 01:45:03;;;;;;;5.63;2.88;;;9.50;93.00;;;;;;5074938;28;20036;-76
2021/05/03 01:47:49;;;;;;;7.15;3.20;;;9.50;93.10;;;;;;5093944;28;20752;-75
2021/05/03 01:50:34;;;;;;;8.82;3.05;;;9.50;92.90;;;;;;5096513;28;20578;-75
2021/05/03 01:53:19;;;;;;;5.25;3.28;;;9.40;92.90;;;;;;5105628;28;20410;-74
2021/05/03 01:56:03;;;;;;;9.80;3.25;;;9.30;93.00;;;;;;5074019;28;20032;-75
2021/05/03 01:58:47;;;;;;;4.60;2.60;;;9.20;93.10;;;;;;5091441;28;20127;-75
2021/05/03 02:01:31;;;;;;;4.93;2.70;;;9.20;93.10;;;;;;5093022;28;20273;-76
2021/05/03 02:04:15;;;;;;;6.38;3.17;;;9.20;93.10;;;;;;5108815;28;20035;-75
2021/05/03 02:06:59;;;;;;;7.75;3.38;;;9.20;93.10;;;;;;5092552;28;20035;-75
2021/05/03 02:09:44;;;;;;;5.57;2.75;;;9.20;93.10;;;;;;5092688;28;20600;-75
2021/05/03 02:12:28;;;;;;;5.30;2.72;;;9.10;93.10;;;;;;5096670;28;20034;-75
2021/05/03 02:15:13;;;;;;;5.57;3.28;;;9.10;93.10;;;;;;5097615;28;20529;-76
2021/05/03 02:17:57;;;;;;;4.15;2.78;;;9.00;93.10;;;;;;5093473;28;20043;-76
2021/05/03 02:20:42;;;;;;;7.28;3.28;;;9.00;93.10;;;;;;5093824;28;20097;-75
2021/05/03 02:23:26;;;;;;;16.92;5.30;;;9.00;93.10;;;;;;5091214;28;20031;-75
2021/05/03 02:26:10;;;;;;;6.93;3.33;;;8.90;93.10;;;;;;5092548;28;20084;-75
2021/05/03 02:28:54;;;;;;;6.13;3.30;;;8.90;93.10;;;;;;5090792;28;20078;-75
2021/05/03 02:31:38;;;;;;;6.95;3.22;;;8.90;93.00;;;;;;5092589;28;20033;-75
2021/05/03 02:34:22;;;;;;;7.32;3.33;;;8.80;93.10;;;;;;5093611;28;20114;-75
2021/05/03 02:37:07;;;;;;;8.13;3.60;;;8.80;93.10;;;;;;5090906;28;20073;-75
2021/05/03 02:39:51;;;;;;;7.35;3.72;;;8.80;93.00;;;;;;5073192;28;20397;-75
2021/05/03 02:42:35;;;;;;;6.05;3.53;;;8.70;93.00;;;;;;5080751;28;20503;-74
2021/05/03 02:45:20;;;;;;;5.07;3.08;;;8.60;92.90;;;;;;5092581;28;20047;-75
2021/05/03 02:48:05;;;;;;;5.82;2.95;;;8.60;92.90;;;;;;5088265;28;20493;-75
2021/05/03 02:50:49;;;;;;;7.68;2.83;;;8.50;93.00;;;;;;5107099;28;20042;-76
2021/05/03 02:53:33;;;;;;;6.90;3.10;;;8.50;93.00;;;;;;5107328;28;20493;-76
2021/05/03 02:56:17;;;;;;;9.27;3.30;;;8.50;93.00;;;;;;5104112;28;20179;-78
2021/05/03 02:59:01;;;;;;;5.32;3.38;;;8.40;92.90;;;;;;5092439;28;20058;-78
2021/05/03 03:01:45;;;;;;;5.18;3.28;;;8.30;92.90;;;;;;5089477;28;20088;-77
2021/05/03 03:04:29;;;;;;;6.13;3.58;;;8.30;93.00;;;;;;5072645;28;20035;-77
2021/05/03 03:07:13;;;;;;;6.57;3.15;;;8.20;93.10;;;;;;5089795;28;20047;-77
2021/05/03 03:09:57;;;;;;;5.35;2.88;;;8.10;93.20;;;;;;5092454;28;20070;-77
2021/05/03 03:12:41;;;;;;;6.72;3.47;;;8.10;93.40;;;;;;5089665;28;20518;-79
2021/05/03 03:15:29;;;;;;;7.45;3.80;;;7.90;93.30;;;;;;5095026;28;20043;-78
2021/05/03 03:18:13;;;;;;;6.72;2.95;;;8.00;93.40;;;;;;5091086;28;20051;-76
2021/05/03 03:20:58;;;;;;;5.80;2.95;;;7.90;93.50;;;;;;5072201;28;20284;-76
2021/05/03 03:23:42;;;;;;;5.53;2.85;;;7.90;93.40;;;;;;5088272;28;20456;-77
2021/05/03 03:26:26;;;;;;;6.18;3.20;;;7.90;93.40;;;;;;5092449;28;20503;-74
2021/05/03 03:29:10;;;;;;;5.63;3.42;;;8.00;93.40;;;;;;5057455;28;20081;-77
2021/05/03 03:31:54;;;;;;;11.93;3.85;;;7.90;93.40;;;;;;5074346;28;20085;-74
2021/05/03 03:34:39;;;;;;;6.43;3.00;;;7.90;93.50;;;;;;5082971;28;20039;-74
2021/05/03 03:37:23;;;;;;;4.82;2.92;;;7.90;93.40;;;;;;5083047;28;20050;-74
2021/05/03 03:40:08;;;;;;;5.07;3.33;;;7.90;93.40;;;;;;5096246;28;20039;-76
2021/05/03 03:42:53;;;;;;;5.10;3.20;;;7.90;93.50;;;;;;5089851;28;20707;-75
2021/05/03 03:45:19;;;;;;;8.20;3.47;;;8.00;93.40;;;;;;5076232;28;20024;-74
2021/05/03 03:48:05;;;;;;;8.95;3.47;;;8.00;93.40;;;;;;5082679;28;20084;-75
2021/05/03 03:50:49;;;;;;;10.73;3.22;;;8.00;93.40;;;;;;5074727;28;20031;-75
2021/05/03 03:53:33;;;;;;;7.28;3.50;;;8.00;93.40;;;;;;5089602;28;20078;-75
2021/05/03 03:56:18;;;;;;;9.48;3.13;;;7.90;93.10;;;;;;5076837;28;20086;-78
2021/05/03 03:59:06;;;;;;;6.75;3.50;;;7.90;93.20;;;;;;5090812;28;20039;-77
2021/05/03 04:01:50;;;;;;;6.80;3.22;;;7.90;93.20;;;;;;5088280;28;20124;-78
2021/05/03 04:04:38;;;;;;;5.18;3.40;;;7.90;93.20;;;;;;5111824;28;20031;-78
2021/05/03 04:07:35;;;;;;;7.50;3.38;;;7.90;93.10;;;;;;5108096;28;20074;-77
2021/05/03 04:10:36;;;;;;;5.90;3.15;;;7.90;93.10;;;;;;5104257;28;20397;-77
2021/05/03 04:13:49;;;;;;;5.22;3.03;;;7.90;93.10;;;;;;5084932;28;20064;-75
2021/05/03 04:23:01;;;;;;;4.85;2.85;;;7.90;93.00;;;;;;5080176;28;20085;-77
2021/05/03 04:25:45;;;;;;;7.57;3.53;;;7.90;92.90;;;;;;5091037;28;20031;-77
2021/05/03 04:28:29;;;;;;;4.22;2.90;;;7.80;92.90;;;;;;5100972;28;20035;-77
2021/05/03 04:31:14;;;;;;;6.00;3.30;;;7.90;93.00;;;;;;5098748;28;20083;-77
2021/05/03 04:33:58;;;;;;;7.07;2.80;;;7.80;92.90;;;;;;5110319;28;20054;-78
2021/05/03 04:36:42;;;;;;;4.72;3.08;;;7.90;92.90;;;;;;5077303;28;20052;-75
2021/05/03 04:39:26;;;;;;;5.70;3.20;;;7.90;92.90;;;;;;5097548;28;20123;-75
2021/05/03 04:42:10;;;;;;;9.30;3.47;;;7.90;93.00;;;;;;5089720;28;20081;-75
2021/05/03 04:44:54;;;;;;;5.22;3.00;;;7.90;93.00;;;;;;5069841;28;20044;-78
2021/05/03 04:47:39;;;;;;;6.78;2.67;;;7.90;92.80;;;;;;5087876;28;20088;-78
2021/05/03 04:50:23;;;;;;;7.28;3.03;;;8.00;92.80;;;;;;5079877;28;20078;-77
2021/05/03 04:53:07;;;;;;;5.88;3.25;;;8.00;92.80;;;;;;5092741;28;20086;-78
2021/05/03 04:55:51;;;;;;;6.13;2.78;;;8.10;92.80;;;;;;5095595;28;20157;-78
2021/05/03 04:58:35;;;;;;;6.65;3.33;;;8.10;92.70;;;;;;5103803;28;20034;-74
2021/05/03 05:01:19;;;;;;;6.40;2.83;;;8.10;92.60;;;;;;5094673;28;20055;-74
2021/05/03 05:04:03;;;;;;;6.13;3.00;;;8.20;92.60;;;;;;5078898;28;20404;-74
2021/05/03 05:06:48;;;;;;;5.50;3.47;;;8.20;92.70;;;;;;5077045;28;20047;-74
2021/05/03 05:09:31;;;;;;;6.40;3.40;;;8.20;92.60;;;;;;5100594;28;20039;-76
2021/05/03 05:12:16;;;;;;;7.32;2.95;;;8.30;92.50;;;;;;5097572;28;20062;-75
2021/05/03 05:15:00;;;;;;;6.00;3.07;;;8.40;92.40;;;;;;5081607;28;20074;-75
2021/05/03 05:17:46;;;;;;;5.07;3.03;;;8.40;92.50;;;;;;5099214;28;20046;-73
2021/05/03 05:20:30;;;;;;;8.30;3.40;;;8.50;92.30;;;;;;5074364;28;20050;-74
2021/05/03 05:23:14;;;;;;;5.25;2.88;;;8.50;92.10;;;;;;5087044;28;20069;-70
2021/05/03 05:25:59;;;;;;;6.15;2.70;;;8.60;92.10;;;;;;5091020;28;20089;-74
2021/05/03 05:28:43;;;;;;;6.43;3.05;;;8.60;92.10;;;;;;5095952;28;20039;-74
2021/05/03 05:31:27;;;;;;;7.97;2.80;;;8.60;91.90;;;;;;5087811;28;20067;-74
2021/05/03 05:34:11;;;;;;;4.68;2.85;;;8.70;91.90;;;;;;5074240;28;20159;-74
2021/05/03 05:36:55;;;;;;;5.53;3.15;;;8.70;91.80;;;;;;5082371;28;20082;-74
2021/05/03 05:39:39;;;;;;;6.35;3.25;;;8.70;91.80;;;;;;5115487;28;20031;-74
2021/05/03 05:42:23;;;;;;;6.05;3.00;;;8.80;91.70;;;;;;5102420;28;20089;-75
2021/05/03 05:45:08;;;;;;;5.40;3.00;;;8.80;91.50;;;;;;5111900;28;20035;-74
2021/05/03 05:47:52;;;;;;;5.15;2.90;;;8.90;91.30;;;;;;5081534;28;20046;-74
2021/05/03 05:50:36;;;;;;;7.93;3.42;;;8.90;91.30;;;;;;5094217;28;20066;-72
2021/05/03 05:53:20;;;;;;;6.97;2.92;;;8.90;91.30;;;;;;5087836;28;20093;-76
2021/05/03 05:56:05;;;;;;;7.00;3.17;;;9.00;91.30;;;;;;5076550;28;20411;-75
2021/05/03 05:58:49;;;;;;;6.03;2.75;;;9.00;91.20;;;;;;5110163;28;20445;-75
2021/05/03 06:01:33;;;;;;;8.00;2.95;;;9.00;90.90;;;;;;5052874;28;20048;-76
2021/05/03 06:04:17;;;;;;;5.05;3.35;;;9.00;90.90;;;;;;5033686;28;20584;-75
2021/05/03 06:07:01;;;;;;;4.13;3.00;;;9.10;91.10;;;;;;5039863;28;20102;-74
2021/05/03 06:09:45;;;;;;;4.10;2.85;;;9.20;90.80;;;;;;5070866;28;22003;-74
2021/05/03 06:12:29;;;;;;;6.38;2.92;;;9.20;90.60;;;;;;5051454;28;20620;-74
2021/05/03 06:15:13;;;;;;;5.78;3.03;;;9.10;90.40;;;;;;5052648;28;20036;-74
2021/05/03 06:17:57;;;;;;;7.05;3.15;;;9.20;90.40;;;;;;5062338;28;20043;-73
2021/05/03 06:20:41;;;;;;;5.00;2.80;;;9.20;90.50;;;;;;5063697;28;20040;-74
2021/05/03 06:23:25;;;;;;;5.72;2.88;;;9.30;90.60;;;;;;5050650;28;20074;-74
2021/05/03 06:26:09;;;;;;;6.68;2.95;;;9.30;90.50;;;;;;5040858;28;20072;-74
2021/05/03 06:28:53;;;;;;;6.38;3.58;;;9.30;90.40;;;;;;5053832;28;20031;-74
2021/05/03 06:31:37;;;;;;;7.30;2.80;;;9.30;90.00;;;;;;5051688;28;20504;-73
2021/05/03 06:34:23;;;;;;;4.88;2.80;;;9.30;90.00;;;;;;5033371;28;20103;-74
2021/05/03 06:37:07;;;;;;;4.35;2.75;;;9.30;89.70;;;;;;5036361;28;20089;-73
2021/05/03 06:39:52;;;;;;;4.13;2.75;;;9.30;89.50;;;;;;5052762;28;20073;-73
2021/05/03 06:42:36;;;;;;;4.35;2.70;;;9.30;89.80;;;;;;5050268;28;20039;-74
2021/05/03 06:45:21;;;;;;;5.03;2.70;;;9.30;89.60;;;;;;5033204;28;20067;-73
2021/05/03 06:48:08;;;;;;;6.95;3.00;;;9.30;89.10;;;;;;5054728;28;20043;-73
2021/05/03 06:50:52;;;;;;;7.22;3.03;;;9.30;89.60;;;;;;5053011;28;20035;-73
2021/05/03 06:53:36;;;;;;;3.60;2.25;;;9.40;89.50;;;;;;5049555;28;20083;-73
2021/05/03 06:56:20;;;;;;;5.60;2.60;;;9.40;89.10;;;;;;5069565;28;20083;-72
2021/05/03 06:59:04;;;;;;;6.53;2.53;;;9.50;89.10;;;;;;5062068;28;20035;-75
2021/05/03 07:01:49;;;;;;;5.30;2.47;;;9.50;88.80;;;;;;5075831;28;20047;-77
2021/05/03 07:04:33;;;;;;;5.18;2.65;;;9.60;88.50;;;;;;5092001;28;20112;-72
2021/05/03 07:07:17;;;;;;;7.88;2.63;;;9.60;88.20;;;;;;5090646;28;20120;-73
2021/05/03 07:10:01;;;;;;;9.30;3.95;;;9.70;88.20;;;;;;5072693;28;20762;-71
2021/05/03 07:12:47;;;;;;;3.80;2.20;;;9.80;88.20;;;;;;5081632;28;20055;-71
2021/05/03 07:15:31;;;;;;;7.45;2.30;;;9.90;88.00;;;;;;5097754;28;20069;-71
2021/05/03 07:18:16;;;;;;;3.40;2.30;;;10.10;88.10;;;;;;5097216;28;20115;-72
2021/05/03 07:21:00;;;;;;;3.67;2.30;;;10.20;86.80;;;;;;5091484;28;20093;-72
2021/05/03 07:23:47;;;;;;;5.22;2.28;;;10.40;84.60;;;;;;5078624;28;20570;-72
2021/05/03 07:26:33;;;;;;;5.85;2.42;;;10.50;84.70;;;;;;5066140;28;20050;-71
2021/05/03 07:28:59;;;;;;;3.40;2.05;;;10.70;84.30;;;;;;5089174;28;20035;-71
2021/05/03 07:31:24;;;;;;;5.28;1.92;;;10.80;83.60;;;;;;5081310;28;20020;-71
2021/05/03 07:33:50;;;;;;;3.20;1.98;;;10.90;82.90;;;;;;5092722;28;20071;-71
2021/05/03 07:36:15;;;;;;;3.13;1.85;;;11.00;82.60;;;;;;5072007;28;20020;-72
2021/05/03 07:38:41;;;;;;;4.35;1.80;;;11.00;81.40;;;;;;5085995;28;20029;-72
2021/05/03 07:41:06;;;;;;;4.22;2.20;;;11.10;80.70;;;;;;5090165;28;20047;-72
2021/05/03 07:43:33;;;;;;;3.70;1.70;;;11.10;80.70;;;;;;5106118;28;20131;-72
2021/05/03 07:45:58;;;;;;;3.17;1.85;;;11.10;80.80;;;;;;5092702;28;20523;-72
2021/05/03 07:48:24;;;;;;;3.40;2.17;;;11.20;80.50;;;;;;5105266;28;20087;-72
2021/05/03 07:50:49;;;;;;;5.80;2.60;;;11.20;80.30;;;;;;5089079;28;20035;-71
2021/05/03 07:53:33;;;;;;;4.70;2.03;;;11.30;80.50;;;;;;5091297;28;20506;-72
2021/05/03 07:56:18;;;;;;;3.90;2.00;;;11.40;79.90;;;;;;5081528;28;20089;-71
2021/05/03 07:58:45;;;;;;;3.63;2.00;;;11.40;79.70;;;;;;5093387;28;20119;-71
2021/05/03 08:01:30;;;;;;;4.43;2.40;;;11.50;79.40;;;;;;5076473;28;20079;-72
2021/05/03 08:04:14;;;;;;;4.07;2.03;;;11.50;78.40;;;;;;5079986;28;20030;-72
2021/05/03 08:06:59;;;;;;;3.85;1.98;;;11.60;78.20;;;;;;5093536;28;20057;-71
2021/05/03 08:09:44;;;;;;;3.88;2.05;;;11.70;77.70;;;;;;5098543;28;20043;-72
2021/05/03 08:12:29;;;;;;;3.03;1.92;;;11.80;77.50;;;;;;5093045;28;20093;-71
2021/05/03 08:15:14;;;;;;;4.25;1.90;;;11.80;74.20;;;;;;5095911;28;20074;-72
2021/05/03 08:17:58;;;;;;;5.93;2.40;;;11.90;75.90;;;;;;5086448;28;20039;-71
2021/05/03 08:20:43;;;;;;;4.70;2.08;;;12.00;75.40;;;;;;5087441;28;20073;-71
2021/05/03 08:23:27;;;;;;;10.05;2.17;;;12.00;73.60;;;;;;5085850;28;20035;-71
2021/05/03 08:26:11;;;;;;;3.40;1.92;;;12.00;73.80;;;;;;5085440;28;20051;-70
2021/05/03 08:28:55;;;;;;;4.13;2.10;;;12.10;73.60;;;;;;5086625;28;20046;-72
2021/05/03 08:31:39;;;;;;;5.05;1.85;;;12.10;73.70;;;;;;5088255;28;20067;-74
2021/05/03 08:34:24;;;;;;;4.80;2.25;;;12.10;72.90;;;;;;5085202;28;20039;-74
2021/05/03 08:37:09;;;;;;;2.67;2.03;;;12.20;73.30;;;;;;5083633;28;20039;-73
2021/05/03 08:39:53;;;;;;;7.53;2.05;;;12.20;72.60;;;;;;5085566;28;20035;-74
2021/05/03 08:42:37;;;;;;;5.70;2.10;;;12.20;72.20;;;;;;5066486;28;20032;-74
2021/05/03 08:45:21;;;;;;;3.30;1.80;;;12.30;71.90;;;;;;5083992;28;20175;-74
2021/05/03 08:51:12;;;;;;;2.67;1.70;;;12.60;70.80;;;;;;5078381;28;20063;-74
2021/05/03 08:54:08;;;;;;;4.25;1.92;;;12.60;69.50;;;;;;5091574;28;20101;-75
2021/05/03 08:56:53;;;;;;;3.33;1.60;;;12.70;70.00;;;;;;5088655;28;20412;-75
2021/05/03 08:59:38;;;;;;;;;;;12.70;67.90;;;;;;5095453;28;20048;-78
2021/05/03 09:02:22;;;;;;;3.10;1.70;;;12.60;65.40;;;;;;5102025;28;19922;-77
2021/05/03 09:05:07;;;;;;;4.40;2.00;;;12.50;66.30;;;;;;5087843;28;20031;-78
2021/05/03 09:07:51;;;;;;;2.35;1.58;;;12.50;67.10;;;;;;5090479;28;20491;-78
2021/05/03 09:10:44;;;;;;;2.72;1.77;;;12.40;66.40;;;;;;5091395;28;20531;-77
2021/05/03 09:13:31;;;;;;;3.67;1.85;;;12.40;66.50;;;;;;5074738;28;20047;-75
2021/05/03 09:16:23;;;;;;;4.85;1.50;;;12.40;65.20;;;;;;5086947;28;20111;-75
2021/05/03 09:19:08;;;;;;;4.00;1.70;;;12.40;64.80;;;;;;5091970;28;20066;-77
2021/05/03 09:21:54;;;;;;;3.85;1.60;;;12.40;65.00;;;;;;5093823;28;20035;-79
2021/05/03 09:24:38;;;;;;;2.95;1.70;;;12.30;64.40;;;;;;5079340;28;20586;-77
2021/05/03 09:27:22;;;;;;;2.67;1.80;;;12.30;65.30;;;;;;5086213;28;20141;-79
2021/05/03 09:29:48;;;;;;;4.70;1.63;;;12.20;65.60;;;;;;5078697;28;20064;-82
2021/05/03 09:32:32;;;;;;;2.45;1.55;;;12.20;65.20;;;;;;5088630;28;20529;-83
2021/05/03 09:35:16;;;;;;;4.95;1.75;;;12.20;65.80;;;;;;5093626;28;20122;-79
2021/05/03 09:38:00;;;;;;;4.05;1.45;;;12.30;65.90;;;;;;5086251;28;20031;-77
2021/05/03 09:40:44;;;;;;;2.67;1.70;;;12.50;65.00;;;;;;5093162;28;20050;-77
2021/05/03 09:43:28;;;;;;;2.08;1.40;;;12.60;64.80;;;;;;5092654;28;20101;-77
2021/05/03 09:46:35;;;;;;;3.25;1.92;;;12.80;64.00;;;;;;5093106;28;20112;-79
2021/05/03 09:49:21;;;;;;;2.63;1.67;;;12.80;63.00;;;;;;5092822;28;20039;-80
2021/05/03 09:52:08;;;;;;;5.28;1.77;;;12.90;62.30;;;;;;5096266;28;20244;-78
2021/05/03 09:54:43;;;;;;;3.72;1.30;;;13.00;61.70;;;;;;5069546;28;20551;-79
2021/05/03 09:57:10;;;;;;;4.07;1.70;;;13.00;62.00;;;;;;5088834;28;20031;-78
2021/05/03 09:59:38;;;;;;;2.47;1.60;;;13.10;61.40;;;;;;5085336;28;20133;-76
2021/05/03 10:02:13;;;;;;;3.58;1.50;;;13.10;61.60;;;;;;5087472;28;20027;-77
2021/05/03 10:04:45;;;;;;;;;;;13.20;60.90;;;;;;5089546;28;20404;-78
2021/05/03 10:07:10;;;;;;;3.20;1.45;;;13.30;61.10;;;;;;5088156;28;19915;-78
2021/05/03 10:09:36;;;;;;;3.70;1.67;;;13.30;60.90;;;;;;5079944;28;20024;-78
2021/05/03 10:12:01;;;;;;;3.70;1.63;;;13.30;59.80;;;;;;5086047;28;20038;-79
2021/05/03 10:14:28;;;;;;;2.92;1.48;;;13.30;59.40;;;;;;5087991;28;20024;-79
2021/05/03 10:16:54;;;;;;;1.48;1.15;;;13.20;58.40;;;;;;5092859;28;20036;-79
2021/05/03 10:19:20;;;;;;;2.75;1.60;;;13.20;59.00;;;;;;5106670;28;20031;-79
2021/05/03 10:21:47;;;;;;;4.57;1.75;;;13.20;58.90;;;;;;5086586;28;20380;-79
2021/05/03 10:24:14;;;;;;;2.55;1.63;;;13.20;59.10;;;;;;5091326;28;20310;-77
2021/05/03 10:26:41;;;;;;;4.45;1.70;;;13.20;59.40;;;;;;5092775;28;20028;-78
2021/05/03 10:29:23;;;;;;;3.08;2.03;;;13.20;59.20;;;;;;5095895;28;20032;-80
2021/05/03 10:32:01;;;;;;;2.83;1.70;;;13.20;59.10;;;;;;5054429;28;20423;-78
2021/05/03 10:34:50;;;;;;;4.13;1.60;;;13.20;59.50;;;;;;5093661;28;20035;-77
2021/05/03 10:37:32;;;;;;;3.13;1.65;;;13.20;58.90;;;;;;5046819;28;20384;-78
2021/05/03 10:39:59;;;;;;;3.30;1.45;;;13.30;58.60;;;;;;5092164;28;20027;-77
2021/05/03 10:42:25;;;;;;;3.33;1.70;;;13.20;57.70;;;;;;5081015;28;20038;-79
2021/05/03 10:45:15;;;;;;;2.05;1.45;;;13.20;57.70;;;;;;5055289;28;20032;-79
2021/05/03 10:47:47;;;;;;;5.47;2.10;;;13.20;57.40;;;;;;5067286;28;20419;-79
2021/05/03 10:50:31;;;;;;;5.15;1.80;;;13.20;57.80;;;;;;5090035;28;20089;-78
2021/05/03 10:53:18;;;;;;;3.45;1.45;;;13.20;56.90;;;;;;5090871;28;20043;-78
2021/05/03 10:55:59;;;;;;;2.58;1.50;;;13.20;57.40;;;;;;5071029;28;20059;-77
2021/05/03 10:58:24;;;;;;;2.28;1.60;;;13.20;56.80;;;;;;5087181;28;20484;-77
2021/05/03 11:01:02;;;;;;;3.80;1.50;;;13.30;56.60;;;;;;5087902;28;20072;-78
2021/05/03 11:03:56;;;;;;;2.78;1.40;;;13.40;56.60;;;;;;5087936;28;20082;-77
2021/05/03 11:06:43;;;;;;;2.58;1.60;;;13.50;56.20;;;;;;5087564;28;20357;-77
2021/05/03 11:09:38;;;;;;;3.75;1.48;;;13.50;56.20;;;;;;5088269;28;20694;-78
2021/05/03 11:12:06;;;;;;;1.58;1.10;;;13.60;55.80;;;;;;5087222;28;20063;-78
2021/05/03 11:14:41;;;;;;;4.00;1.30;;;13.80;55.50;;;;;;5067199;28;20427;-75
2021/05/03 11:17:17;;;;;;;1.83;1.30;;;13.90;55.30;;;;;;5067450;28;20031;-70
2021/05/03 11:22:48;;;;;;;2.50;1.38;;;14.00;54.10;;;;;;5087104;28;20024;-70
2021/05/03 11:25:19;;;;;;;3.42;1.42;;;14.00;52.40;;;;;;5058964;28;20036;-70
2021/05/03 11:32:54;;;;;;;3.97;1.38;;;14.20;53.00;;;;;;5087576;28;20512;-72
2021/05/03 11:37:57;;;;;;;3.85;1.30;;;14.20;53.40;;;;;;5090062;28;20059;-68
2021/05/03 11:40:34;;;;;;;3.38;1.45;;;14.30;52.90;;;;;;5092316;28;20040;-69
2021/05/03 11:43:32;;;;;;;2.85;1.60;;;14.40;52.90;;;;;;5087938;28;20073;-69
2021/05/03 11:45:51;;;;;;;3.53;1.70;;;14.40;53.10;;;;;;5070251;28;20122;-72
2021/05/03 11:48:28;;;;;;;4.60;1.48;;;14.50;52.50;;;;;;5084726;28;20130;-71
2021/05/03 11:51:15;;;;;;;3.83;1.30;;;14.50;52.20;;;;;;5087960;28;20035;-75
2021/05/03 11:53:43;;;;;;;2.22;1.35;;;14.50;52.60;;;;;;5058209;28;20028;-75
2021/05/03 11:56:29;;;;;;;2.17;1.50;;;14.50;52.80;;;;;;5066680;28;20030;-74
2021/05/03 11:58:58;;;;;;;3.15;1.60;;;14.50;52.50;;;;;;5087745;28;20397;-74
2021/05/03 12:01:26;;;;;;;2.42;1.52;;;14.60;52.80;;;;;;5044749;28;22255;-73
2021/05/03 12:03:58;;;;;;;4.20;1.50;;;14.70;52.60;;;;;;5048330;28;20141;-75
2021/05/03 12:06:39;;;;;;;3.20;1.58;;;14.70;52.80;;;;;;5046354;28;20432;-74
2021/05/03 12:09:14;;;;;;;3.55;1.70;;;14.90;52.60;;;;;;5045983;28;20048;-74
2021/05/03 12:12:00;;;;;;;5.13;1.48;;;15.00;52.80;;;;;;5047790;28;20052;-74
2021/05/03 12:14:42;;;;;;;3.15;1.48;;;15.00;52.30;;;;;;5034712;28;20028;-74
2021/05/03 12:17:29;;;;;;;2.25;1.55;;;15.00;51.90;;;;;;5041825;28;20503;-75
2021/05/03 12:20:21;;;;;;;2.38;1.42;;;15.00;51.80;;;;;;5048519;28;20452;-74
2021/05/03 12:22:56;;;;;;;2.95;1.55;;;15.00;51.90;;;;;;5034992;28;20071;-70
2021/05/03 12:25:21;;;;;;;3.17;1.60;;;15.00;52.00;;;;;;5047980;28;20037;-72
2021/05/03 12:27:47;;;;;;;2.28;1.48;;;15.10;52.00;;;;;;5045784;28;20055;-72
2021/05/03 12:30:13;;;;;;;4.88;1.73;;;15.20;52.40;;;;;;5048821;28;20033;-73
2021/05/03 12:32:41;;;;;;;2.08;1.20;;;15.20;50.70;;;;;;5047351;28;20028;-71
2021/05/03 12:35:11;;;;;;;2.50;1.35;;;15.10;50.20;;;;;;5048469;28;20107;-72
2021/05/03 12:37:37;;;;;;;3.97;1.90;;;15.10;50.20;;;;;;5034039;28;20025;-73
2021/05/03 12:40:12;;;;;;;3.90;1.65;;;15.00;50.20;;;;;;5050005;28;20067;-75
2021/05/03 12:42:44;;;;;;;2.10;1.38;;;15.00;50.40;;;;;;5040457;28;20028;-76
2021/05/03 12:45:14;;;;;;;3.67;1.58;;;15.10;50.30;;;;;;5049338;28;20032;-72
2021/05/03 12:48:10;;;;;;;3.03;1.60;;;15.10;50.50;;;;;;5042179;28;20116;-73
2021/05/03 12:51:00;;;;;;;2.08;1.67;;;15.20;50.00;;;;;;5045360;28;20108;-72
2021/05/03 12:53:35;;;;;;;2.08;1.40;;;15.30;49.70;;;;;;5045811;28;20044;-72
2021/05/03 12:56:17;;;;;;;2.33;1.50;;;15.30;49.50;;;;;;5054393;28;20021;-72
2021/05/03 12:59:19;;;;;;;1.88;1.38;;;15.20;49.40;;;;;;5047935;28;20068;-72
2021/05/03 13:04:50;;;;;;;4.65;1.80;;;15.10;50.30;;;;;;5068273;28;20036;-72
2021/05/03 13:22:31;;;;;;;2.80;1.92;;;14.70;53.90;;;;;;5068509;28;20124;-74
2021/05/03 13:29:20;;;;;;;2.53;1.73;;;14.30;55.60;;;;;;5061281;28;20035;-74
2021/05/03 13:31:47;;;;;;;3.80;2.00;;;14.20;56.30;;;;;;5066584;28;20072;-73
2021/05/03 13:34:17;;;;;;;2.70;1.75;;;14.10;56.20;;;;;;5065907;28;20034;-74
2021/05/03 13:36:48;;;;;;;4.95;1.90;;;14.10;56.20;;;;;;5030510;28;20055;-73
2021/05/03 13:39:17;;;;;;;3.83;2.10;;;14.00;55.60;;;;;;5051465;28;20039;-73
2021/05/03 13:41:45;;;;;;;3.67;2.10;;;13.90;55.70;;;;;;5056759;28;20020;-78
2021/05/03 13:44:12;;;;;;;3.65;2.10;;;13.90;56.10;;;;;;5046803;28;20481;-73
2021/05/03 13:46:38;;;;;;;3.88;1.95;;;13.80;56.20;;;;;;5066778;28;20042;-73
2021/05/03 13:49:04;;;;;;;4.95;2.63;;;13.80;56.30;;;;;;5069735;28;20090;-74
2021/05/03 13:51:30;;;;;;;4.40;3.00;;;13.80;57.10;;;;;;5066177;28;20289;-74
2021/05/03 13:53:56;;;;;;;5.30;2.70;;;13.80;56.90;;;;;;5067448;28;20033;-73
2021/05/03 13:56:31;;;;;;;4.50;2.65;;;13.70;57.10;;;;;;5052322;28;20024;-73
2021/05/03 13:58:57;;;;;;;6.07;3.42;;;13.80;57.20;;;;;;5074856;28;20024;-72
2021/05/03 14:01:23;;;;;;;4.93;3.35;;;13.70;57.10;;;;;;5071309;28;20473;-73
2021/05/03 14:03:48;;;;;;;5.40;3.30;;;13.60;57.00;;;;;;5057949;28;20064;-73
2021/05/03 14:06:18;;;;;;;4.60;3.53;;;13.60;57.50;;;;;;5060072;28;20021;-74
2021/05/03 14:08:47;;;;;;;6.55;3.45;;;13.40;58.00;;;;;;5068027;28;20028;-73
2021/05/03 14:11:13;;;;;;;5.53;3.40;;;13.40;57.80;;;;;;5060385;28;20082;-73
2021/05/03 14:13:39;;;;;;;4.70;3.58;;;13.40;57.90;;;;;;5044895;28;20497;-73
2021/05/03 14:16:08;;;;;;;5.45;4.00;;;13.40;57.90;;;;;;5049585;28;20028;-74
2021/05/03 14:18:34;;;;;;;6.65;3.72;;;13.40;57.90;;;;;;5066943;28;20040;-73
2021/05/03 14:21:02;;;;;;;7.32;3.80;;;13.30;58.00;;;;;;5049423;28;20056;-73
2021/05/03 14:23:28;;;;;;;5.40;3.58;;;13.30;58.10;;;;;;5066287;28;20043;-73
2021/05/03 14:25:54;;;;;;;8.13;3.45;;;13.30;57.90;;;;;;5049495;28;20123;-73
2021/05/03 14:28:34;;;;;;;6.13;3.50;;;13.20;58.30;;;;;;5062324;28;20525;-72
2021/05/03 14:31:06;;;;;;;4.97;4.00;;;13.30;58.90;;;;;;5067828;28;20064;-73
2021/05/03 14:33:35;;;;;;;7.80;4.00;;;13.40;59.20;;;;;;5049755;28;20086;-72
2021/05/03 14:36:07;;;;;;;6.40;4.00;;;13.40;58.50;;;;;;5043682;28;20032;-73
2021/05/03 14:38:36;;;;;;;5.75;3.50;;;13.40;58.40;;;;;;5068698;28;20107;-73
2021/05/03 14:41:03;;;;;;;6.72;3.88;;;13.50;58.40;;;;;;5069561;28;20040;-72
2021/05/03 14:43:29;;;;;;;5.20;3.72;;;13.50;58.70;;;;;;5072188;28;20029;-74